Cheboygan, MI (49721)

6:03 AM EST on January 29, 2015 (GMT -0500)
Wildcat North | Change Station
CLOSE
Current Station
Personal Weather Station
Location: Cheboygan, MI
Elevation: 640 ft
Nearby Weather Stations

Elev 640 ft 45.58 °N, 84.46 °W | Updated 4 seconds ago

Overcast
Overcast
27.7 °F
Feels Like 28 °F
N
3.0
Wind Variable Wind from South
Gusts 7.0 mph

Today
High -- | Low -- °F
--% Chance of Precip.
Yesterday
High -- | Low -- °F
Precip. -- in
8:02 AM 5:39 PM
Waxing Gibbous, 73% visible
Pressure 29.80 in
Visibility 7.0 miles
Clouds Overcast 2900 ft
Windchill 28 °F
Dew Point 18 °F
Humidity 66%
Rainfall 0.00 in
Snow Depth Not available.
UV 0.0 out of 12
Pollen .10 out of 12
Air Quality Not available.
Flu Activity Not available.
METAR KSLH 291057Z AUTO 18003KT 7SM -SN OVC029 M02/M09 A2980 RMK AO2 T10241092

More Conditions Fewer Conditions

Pressure 29.80 in
Visibility 7.0 miles
Clouds Overcast 2900 ft
Windchill 28 °F
Dew Point 18 °F
Humidity 66%
Rainfall 0.00 in
Snow Depth Not available.
UV 0.0 out of 12
Pollen .10 out of 12
Air Quality Not available.
Flu Activity Not available.
METAR KSLH 291057Z AUTO 18003KT 7SM -SN OVC029 M02/M09 A2980 RMK AO2 T10241092

More Conditions Fewer Conditions

Nowcast | as of 6:00 am EST on January 29, 2015

At 7 am...snow. Temperature 24. South winds 6 mph. At 9 am...snow. Temperature 25. Light winds. At 11 am...cloudy. Slight chance of snow. Temperature 27. West winds 5 mph. At 1 PM...cloudy. Chance of snow. Temperature 29. Northwest winds 9 mph.

×

10-Day Weather Forecast

Almanac

Astronomy

Jan. 29, 2015 Rise Set
Actual Time
Civil Twilight
Nautical Twilight
Astronomical Twilight
Moon
Length of Visible Light
Length of Day
Tomorrow will be .
, % of the Moon is Illuminated

Today's Extremes

State Highs State Lows

Community

WunderPhotos

Upload Photos

1,791,390 photos uploaded!

WunderBlogs® & News

Nearby

Air Quality

  Air Quality AQ Index Pollutant
Not available.

Snow Depth

Station Depth Elevation

Earthquake Activity

City Distance Mag. Time & Date
Minimum magnitude displayed is 2.5.

Coastal Water Temperatures

Place Temperature

Nearby Weather Stations